KCON/CON METAR and TAF weather

Enter ICAO airport designator
Station Type Date Time Source
KCON METAR 2019/10/18 06:51 UTC NOAA

KCON 180651Z AUTO 30010G21KT 10SM OVC034 08/03 A2946 RMK AO2 SLP976 T00830028


Station Type Date Time Source
KCON Decoded METAR 2019/10/18 06:51 UTC NOAA

Concord, Concord Municipal Airport, NH, United States (KCON) 43-11-43N 071-30-04W 103M
Oct 18, 2019 - 02:51 AM EDT / 2019.10.18 0651 UTC
Wind: from the WNW (300 degrees) at 12 MPH (10 KT) gusting to 24 MPH (21 KT):0
Visibility: 10 mile(s):0
Sky conditions: overcast
Temperature: 46.9 F (8.3 C)
Dew Point: 37.0 F (2.8 C)
Relative Humidity: 68%
Pressure (altimeter): 29.46 in. Hg (997 hPa)
ob: KCON 180651Z AUTO 30010G21KT 10SM OVC034 08/03 A2946 RMK AO2 SLP976 T00830028
cycle: 7

Station Type Date Time Source
KCON TAF 2019/10/18 06:24 UTC NOAA

TAF KCON 180521Z 1806/1906 30011KT P6SM BKN035
FM181500 30013G25KT P6SM BKN035
FM190200 31006G17KT P6SM SCT200

Example: see airport list